createdAt,value
2018-09-17T00:00:08.217Z,2.70
2018-09-17T00:02:34.560Z,2.53
2018-09-17T00:05:00.881Z,3.27
2018-09-17T00:07:28.164Z,2.93
2018-09-17T00:09:54.528Z,2.80
2018-09-17T00:12:21.451Z,2.90
2018-09-17T00:14:47.819Z,2.50
2018-09-17T00:17:14.213Z,3.00
2018-09-17T00:19:40.534Z,2.30
2018-09-17T00:22:07.901Z,2.57
2018-09-17T00:24:34.274Z,2.80
2018-09-17T00:27:00.646Z,2.60
2018-09-17T00:29:26.984Z,2.50
2018-09-17T00:31:53.317Z,2.67
2018-09-17T00:34:19.660Z,2.83
2018-09-17T00:36:45.995Z,2.47
2018-09-17T00:39:12.334Z,2.70
2018-09-17T00:41:38.703Z,2.77
2018-09-17T00:44:05.063Z,2.60
2018-09-17T00:46:31.530Z,2.60
2018-09-17T00:48:57.895Z,3.03
2018-09-17T00:51:24.229Z,2.70
2018-09-17T00:53:50.631Z,2.77
2018-09-17T00:56:16.957Z,2.73
2018-09-17T00:58:44.808Z,2.83
2018-09-17T01:01:11.180Z,2.70
2018-09-17T01:03:37.565Z,2.40
2018-09-17T01:06:05.017Z,2.97
2018-09-17T01:08:32.313Z,2.60
2018-09-17T01:10:58.652Z,3.27
2018-09-17T01:13:25.607Z,3.30
2018-09-17T01:15:51.980Z,2.20
2018-09-17T01:18:18.325Z,2.50
2018-09-17T01:20:44.712Z,2.27
2018-09-17T01:23:11.050Z,2.00
2018-09-17T01:25:37.411Z,2.00
2018-09-17T01:28:03.749Z,2.40
2018-09-17T01:30:31.917Z,2.57
2018-09-17T01:33:02.664Z,2.07
2018-09-17T01:35:29.531Z,2.10
2018-09-17T01:37:55.880Z,2.00
2018-09-17T01:40:22.230Z,2.03
2018-09-17T01:42:48.556Z,1.90
2018-09-17T01:45:15.940Z,2.30
2018-09-17T01:47:42.334Z,2.10
2018-09-17T01:50:08.845Z,2.10
2018-09-17T01:52:35.203Z,2.20
2018-09-17T01:55:01.534Z,2.00
2018-09-17T01:57:27.910Z,1.93
2018-09-17T01:59:54.258Z,2.27
2018-09-17T02:02:20.610Z,1.60
2018-09-17T02:04:46.956Z,1.73
2018-09-17T02:07:13.316Z,1.73
2018-09-17T02:09:43.264Z,1.80
2018-09-17T02:12:09.674Z,2.10
2018-09-17T02:14:36.034Z,2.20
2018-09-17T02:17:02.368Z,1.90
2018-09-17T02:19:28.725Z,1.60
2018-09-17T02:21:55.169Z,2.00
2018-09-17T02:24:21.528Z,1.93
2018-09-17T02:26:48.071Z,1.67
2018-09-17T02:29:15.209Z,1.63
2018-09-17T02:31:41.566Z,1.80
2018-09-17T02:34:07.948Z,1.77
2018-09-17T02:36:36.680Z,2.43
2018-09-17T02:39:03.110Z,2.00
2018-09-17T02:41:29.627Z,1.50
2018-09-17T02:43:57.707Z,1.80
2018-09-17T02:46:24.102Z,2.00
2018-09-17T02:48:50.499Z,1.80
2018-09-17T02:51:16.836Z,1.80
2018-09-17T02:53:43.236Z,2.07
2018-09-17T02:56:09.686Z,2.00
2018-09-17T02:58:36.111Z,1.80
2018-09-17T03:01:02.488Z,1.80
2018-09-17T03:03:30.570Z,1.80
2018-09-17T03:05:56.948Z,2.00
2018-09-17T03:08:23.292Z,1.90
2018-09-17T03:10:50.555Z,1.50
2018-09-17T03:13:16.900Z,1.70
2018-09-17T03:15:43.240Z,1.80
2018-09-17T03:18:10.990Z,1.60
2018-09-17T03:20:37.353Z,1.80
2018-09-17T03:23:03.731Z,1.87
2018-09-17T03:25:32.334Z,6.43
2018-09-17T03:27:58.748Z,28.53
2018-09-17T03:30:26.160Z,31.63
2018-09-17T03:32:52.538Z,57.77
2018-09-17T03:35:18.893Z,36.27
2018-09-17T03:37:45.400Z,23.13
2018-09-17T03:40:11.898Z,33.47
2018-09-17T03:42:38.289Z,29.13
2018-09-17T03:45:04.676Z,16.40
2018-09-17T03:47:31.095Z,17.07
2018-09-17T03:50:02.461Z,12.50
2018-09-17T03:52:28.824Z,13.50
2018-09-17T03:54:55.160Z,13.87
2018-09-17T03:57:23.911Z,11.00
2018-09-17T03:59:50.244Z,7.23
2018-09-17T04:02:16.582Z,10.97
2018-09-17T04:04:42.932Z,8.23
2018-09-17T04:07:15.085Z,4.83
2018-09-17T04:09:41.499Z,5.20
2018-09-17T04:14:39.925Z,7.13
2018-09-17T04:17:06.256Z,6.60
2018-09-17T04:19:32.770Z,5.90
2018-09-17T04:21:59.204Z,3.23
2018-09-17T04:24:29.260Z,2.30
2018-09-17T04:26:55.605Z,5.53
2018-09-17T04:29:22.032Z,7.33
2018-09-17T04:31:48.408Z,4.23
2018-09-17T04:34:14.744Z,4.23
2018-09-17T04:36:41.074Z,4.97
2018-09-17T04:39:07.401Z,4.03
2018-09-17T04:41:33.720Z,4.13
2018-09-17T04:44:00.125Z,1.90
2018-09-17T04:46:28.171Z,3.33
2018-09-17T04:48:54.587Z,8.03
2018-09-17T04:51:20.942Z,4.00
2018-09-17T04:53:47.348Z,1.80
2018-09-17T04:56:13.685Z,3.53
2018-09-17T04:58:40.183Z,6.70
2018-09-17T05:01:06.622Z,2.63
2018-09-17T05:03:34.040Z,2.60
2018-09-17T05:06:04.088Z,4.30
2018-09-17T05:08:30.487Z,2.00
2018-09-17T05:10:59.230Z,2.13
2018-09-17T05:13:25.752Z,2.27
2018-09-17T05:15:51.979Z,2.20
2018-09-17T05:18:18.530Z,3.30
2018-09-17T05:20:44.951Z,3.10
2018-09-17T05:23:11.444Z,2.00
2018-09-17T05:25:40.131Z,2.00
2018-09-17T05:28:06.503Z,2.70
2018-09-17T05:30:32.820Z,3.37
2018-09-17T05:33:01.440Z,1.97
2018-09-17T05:35:27.769Z,3.10
2018-09-17T05:37:54.095Z,2.20
2018-09-17T05:40:20.469Z,5.30
2018-09-17T05:42:46.787Z,1.93
2018-09-17T05:45:13.123Z,2.60
2018-09-17T05:47:39.499Z,3.40
2018-09-17T05:50:06.710Z,2.10
2018-09-17T05:52:33.068Z,2.03
2018-09-17T05:54:59.495Z,5.00
2018-09-17T05:57:26.463Z,2.03
2018-09-17T05:59:53.510Z,2.20
2018-09-17T06:02:19.896Z,5.30
2018-09-17T06:04:46.257Z,2.87
2018-09-17T06:07:12.725Z,3.07
2018-09-17T06:09:39.276Z,2.90
2018-09-17T06:12:06.725Z,6.10
2018-09-17T06:14:33.170Z,2.37
2018-09-17T06:16:59.510Z,4.77
2018-09-17T06:19:28.331Z,4.23
2018-09-17T06:21:54.697Z,3.70
2018-09-17T06:24:21.057Z,5.60
2018-09-17T06:26:47.449Z,6.57
2018-09-17T06:29:13.846Z,3.17
2018-09-17T06:31:40.654Z,4.13
2018-09-17T06:34:07.957Z,2.10
2018-09-17T06:36:34.456Z,2.43
2018-09-17T06:39:02.931Z,2.97
2018-09-17T06:41:29.420Z,3.27
2018-09-17T06:43:55.847Z,4.40
2018-09-17T06:46:22.274Z,2.03
2018-09-17T06:48:48.631Z,2.73
2018-09-17T06:51:14.968Z,2.83
2018-09-17T06:53:41.401Z,2.30
2018-09-17T06:56:07.911Z,2.30
2018-09-17T06:58:34.284Z,4.53
2018-09-17T07:01:00.665Z,3.33
2018-09-17T07:03:28.725Z,2.87
2018-09-17T07:05:55.071Z,4.33
2018-09-17T07:08:21.459Z,5.17
2018-09-17T07:10:48.301Z,3.57
2018-09-17T07:13:14.776Z,3.60
2018-09-17T07:15:41.938Z,5.20
2018-09-17T07:18:09.027Z,2.37
2018-09-17T07:20:35.508Z,4.47
2018-09-17T07:23:04.792Z,7.47
2018-09-17T07:25:32.384Z,3.90
2018-09-17T07:28:00.865Z,3.93
2018-09-17T07:30:27.261Z,4.43
2018-09-17T07:32:53.637Z,3.47
2018-09-17T07:35:21.011Z,9.27
2018-09-17T07:37:47.347Z,2.33
2018-09-17T07:40:13.707Z,2.70
2018-09-17T07:42:40.219Z,3.70
2018-09-17T07:45:06.618Z,3.50
2018-09-17T07:47:35.842Z,3.73
2018-09-17T07:50:03.308Z,3.23
2018-09-17T07:52:29.776Z,3.00
2018-09-17T07:54:59.649Z,2.93
2018-09-17T07:57:26.124Z,5.97
2018-09-17T07:59:52.658Z,2.87
2018-09-17T08:02:19.192Z,5.83
2018-09-17T08:04:45.557Z,5.70
2018-09-17T08:07:12.020Z,4.23
2018-09-17T08:09:38.358Z,3.73
2018-09-17T08:12:04.747Z,3.50
2018-09-17T08:14:32.315Z,7.23
2018-09-17T08:17:00.843Z,4.33
2018-09-17T08:19:27.286Z,4.60
2018-09-17T08:21:53.615Z,3.90
2018-09-17T08:24:21.143Z,5.40
2018-09-17T08:26:47.490Z,19.67
2018-09-17T08:29:14.121Z,3.20
2018-09-17T08:31:40.611Z,4.73
2018-09-17T08:34:08.174Z,5.50
2018-09-17T08:36:37.055Z,3.63
2018-09-17T08:39:04.286Z,4.00
2018-09-17T08:41:30.638Z,3.60
2018-09-17T08:43:57.139Z,4.30
2018-09-17T08:46:23.605Z,8.00
2018-09-17T08:48:50.014Z,11.40
2018-09-17T08:51:16.438Z,10.07
2018-09-17T08:53:43.005Z,8.07
2018-09-17T08:56:09.382Z,7.23
2018-09-17T08:58:35.735Z,8.17
2018-09-17T09:01:08.858Z,5.60
2018-09-17T09:03:35.259Z,5.53
2018-09-17T09:06:01.627Z,5.20
2018-09-17T09:08:28.704Z,6.10
2018-09-17T09:10:55.047Z,8.63
2018-09-17T09:13:21.430Z,6.57
2018-09-17T09:15:47.828Z,3.90
2018-09-17T09:18:14.184Z,4.47
2018-09-17T09:20:40.522Z,7.43
2018-09-17T09:23:06.922Z,3.60
2018-09-17T09:25:33.263Z,10.90
2018-09-17T09:27:59.657Z,4.93
2018-09-17T09:30:25.998Z,3.77
2018-09-17T09:32:52.417Z,6.03
2018-09-17T09:35:20.383Z,4.60
2018-09-17T09:38:05.707Z,13.63
2018-09-17T09:40:32.124Z,4.70
2018-09-17T09:42:58.597Z,7.77
2018-09-17T09:45:24.933Z,15.30
2018-09-17T09:47:52.429Z,5.23
2018-09-17T09:50:18.872Z,6.10
2018-09-17T09:52:45.212Z,7.33
2018-09-17T09:55:11.581Z,5.93
2018-09-17T09:57:37.966Z,6.47
2018-09-17T10:00:04.324Z,8.10
2018-09-17T10:02:32.216Z,7.37
2018-09-17T10:04:58.569Z,7.83
2018-09-17T10:07:25.773Z,7.13
2018-09-17T10:09:52.910Z,6.30
2018-09-17T10:12:19.275Z,4.70
2018-09-17T10:14:45.702Z,7.37
2018-09-17T10:17:13.911Z,5.63
2018-09-17T10:19:40.280Z,5.70
2018-09-17T10:22:07.522Z,14.13
2018-09-17T10:24:33.898Z,11.60
2018-09-17T10:27:00.486Z,15.00
2018-09-17T10:29:27.150Z,10.53
2018-09-17T10:31:53.660Z,6.30
2018-09-17T10:34:20.073Z,11.10
2018-09-17T10:36:46.446Z,8.70
2018-09-17T10:39:12.812Z,4.23
2018-09-17T10:41:39.828Z,3.33
2018-09-17T10:44:06.913Z,7.50
2018-09-17T10:46:33.960Z,8.03
2018-09-17T10:49:00.307Z,9.73
2018-09-17T10:51:26.651Z,9.27
2018-09-17T10:53:53.002Z,10.47
2018-09-17T10:56:19.375Z,8.13
2018-09-17T10:58:45.739Z,10.13
2018-09-17T11:01:12.106Z,12.10
2018-09-17T11:03:41.340Z,10.10
2018-09-17T11:06:07.794Z,5.40
2018-09-17T11:08:34.198Z,8.13
2018-09-17T11:11:03.790Z,8.50
2018-09-17T11:13:31.087Z,4.10
2018-09-17T11:15:57.803Z,7.53
2018-09-17T11:18:24.197Z,4.83
2018-09-17T11:20:50.567Z,8.17
2018-09-17T11:23:16.913Z,6.10
2018-09-17T11:25:43.270Z,5.97
2018-09-17T11:28:09.592Z,6.00
2018-09-17T11:30:35.987Z,4.63
2018-09-17T11:33:04.421Z,7.20
2018-09-17T11:35:30.815Z,6.77
2018-09-17T11:37:57.174Z,3.77
2018-09-17T11:40:24.319Z,7.80
2018-09-17T11:42:50.673Z,6.73
2018-09-17T11:45:17.023Z,5.00
2018-09-17T11:47:43.415Z,5.23
2018-09-17T11:50:11.551Z,6.33
2018-09-17T11:52:37.937Z,5.80
2018-09-17T11:55:05.033Z,3.57
2018-09-17T11:57:31.402Z,6.23
2018-09-17T11:59:58.949Z,7.93
2018-09-17T12:02:25.272Z,7.53
2018-09-17T12:04:51.626Z,4.50
2018-09-17T12:07:17.952Z,8.00
2018-09-17T12:09:44.877Z,11.03
2018-09-17T12:12:11.226Z,7.00
2018-09-17T12:14:37.557Z,10.43
2018-09-17T12:17:05.076Z,5.93
2018-09-17T12:19:31.425Z,5.97
2018-09-17T12:21:57.782Z,13.03
2018-09-17T12:24:24.185Z,7.57
2018-09-17T12:26:50.562Z,5.87
2018-09-17T12:29:18.478Z,5.73
2018-09-17T12:31:44.882Z,3.70
2018-09-17T12:34:11.339Z,4.47
2018-09-17T12:36:38.798Z,5.13
2018-09-17T12:39:05.128Z,7.53
2018-09-17T12:41:31.597Z,9.63
2018-09-17T12:43:58.106Z,6.40
2018-09-17T12:46:25.241Z,5.90
2018-09-17T12:48:51.612Z,3.97
2018-09-17T12:51:21.525Z,6.17
2018-09-17T12:53:48.118Z,7.20
2018-09-17T12:56:14.459Z,4.10
2018-09-17T12:58:41.977Z,7.83
2018-09-17T13:01:09.121Z,6.10
2018-09-17T13:03:36.051Z,5.83
2018-09-17T13:06:02.512Z,4.87
2018-09-17T13:08:29.022Z,7.13
2018-09-17T13:10:55.447Z,8.90
2018-09-17T13:13:23.317Z,11.97
2018-09-17T13:15:49.673Z,6.70
2018-09-17T13:18:17.497Z,5.03
2018-09-17T13:20:43.889Z,7.83
2018-09-17T13:23:10.259Z,5.50
2018-09-17T13:25:36.617Z,6.00
2018-09-17T13:28:03.004Z,7.57
2018-09-17T13:30:29.560Z,6.43
2018-09-17T13:32:56.837Z,3.47
2018-09-17T13:35:23.193Z,6.70
2018-09-17T13:37:49.544Z,8.90
2018-09-17T13:40:15.942Z,4.40
2018-09-17T13:42:42.334Z,5.53
2018-09-17T13:45:08.661Z,7.03
2018-09-17T13:47:35.215Z,6.27
2018-09-17T13:50:01.592Z,5.03
2018-09-17T13:52:28.176Z,4.73
2018-09-17T13:54:55.771Z,5.60
2018-09-17T13:57:23.263Z,5.70
2018-09-17T13:59:49.619Z,6.33
2018-09-17T14:02:16.025Z,5.80
2018-09-17T14:04:42.404Z,3.90
2018-09-17T14:07:11.262Z,3.80
2018-09-17T14:09:37.616Z,4.63
2018-09-17T14:12:03.972Z,3.50
2018-09-17T14:14:30.367Z,7.10
2018-09-17T14:16:56.765Z,4.00
2018-09-17T14:19:23.191Z,4.10
2018-09-17T14:21:49.581Z,3.70
2018-09-17T14:24:20.365Z,3.57
2018-09-17T14:26:46.802Z,7.43
2018-09-17T14:29:13.176Z,3.27
2018-09-17T14:31:39.695Z,4.00
2018-09-17T14:34:06.056Z,6.70
2018-09-17T14:36:32.474Z,4.40
2018-09-17T14:38:58.848Z,8.40
2018-09-17T14:41:25.214Z,4.83
2018-09-17T14:43:52.434Z,4.73
2018-09-17T14:46:19.956Z,4.43
2018-09-17T14:48:46.327Z,4.60
2018-09-17T14:51:12.755Z,3.77
2018-09-17T14:53:41.515Z,6.47
2018-09-17T14:56:07.840Z,7.33
2018-09-17T14:58:34.247Z,3.60
2018-09-17T15:01:00.682Z,6.40
2018-09-17T15:03:27.006Z,3.70
2018-09-17T15:05:53.383Z,7.33
2018-09-17T15:08:19.850Z,26.63
2018-09-17T15:10:46.175Z,3.67
2018-09-17T15:13:16.145Z,4.13
2018-09-17T15:15:42.548Z,4.67
2018-09-17T15:18:08.924Z,9.43
2018-09-17T15:20:35.278Z,5.63
2018-09-17T15:23:01.693Z,8.43
2018-09-17T15:25:28.104Z,4.97
2018-09-17T15:27:54.455Z,3.57
2018-09-17T15:30:20.838Z,7.80
2018-09-17T15:32:47.186Z,9.30
2018-09-17T15:35:13.556Z,11.70
2018-09-17T15:37:40.601Z,6.20
2018-09-17T15:40:06.943Z,8.57
2018-09-17T15:42:33.280Z,3.70
2018-09-17T15:44:59.651Z,3.80
2018-09-17T15:47:25.987Z,3.93
2018-09-17T15:49:52.408Z,13.20
2018-09-17T15:52:18.772Z,3.37
2018-09-17T15:54:45.144Z,9.53
2018-09-17T15:57:11.570Z,4.20
2018-09-17T15:59:37.933Z,6.63
2018-09-17T16:02:04.945Z,4.73
2018-09-17T16:04:31.275Z,4.97
2018-09-17T16:06:57.699Z,8.53
2018-09-17T16:09:26.602Z,7.33
2018-09-17T16:11:54.071Z,4.00
2018-09-17T16:14:20.727Z,3.03
2018-09-17T16:16:48.080Z,3.00
2018-09-17T16:19:14.410Z,2.80
2018-09-17T16:21:42.795Z,3.43
2018-09-17T16:24:12.217Z,3.00
2018-09-17T16:26:38.588Z,3.30
2018-09-17T16:29:04.951Z,4.53
2018-09-17T16:31:31.330Z,3.23
2018-09-17T16:33:57.696Z,2.80
2018-09-17T16:36:24.074Z,2.67
2018-09-17T16:38:50.434Z,2.77
2018-09-17T16:41:16.809Z,3.60
2018-09-17T16:43:43.180Z,4.13
2018-09-17T16:46:09.588Z,2.60
2018-09-17T16:48:36.741Z,2.47
2018-09-17T16:51:03.095Z,3.93
2018-09-17T16:53:29.535Z,2.50
2018-09-17T16:55:55.823Z,3.23
2018-09-17T16:58:22.216Z,3.03
2018-09-17T17:00:48.564Z,3.10
2018-09-17T17:03:14.930Z,3.40
2018-09-17T17:05:41.274Z,2.50
2018-09-17T17:08:07.665Z,2.70
2018-09-17T17:10:34.026Z,2.43
2018-09-17T17:13:00.405Z,2.40
2018-09-17T17:15:26.776Z,2.83
2018-09-17T17:17:53.096Z,4.50
2018-09-17T17:20:19.424Z,3.87
2018-09-17T17:22:45.757Z,2.90
2018-09-17T17:25:12.089Z,2.93
2018-09-17T17:27:38.525Z,3.83
2018-09-17T17:30:04.854Z,3.53
2018-09-17T17:32:31.228Z,4.33
2018-09-17T17:34:57.559Z,3.30
2018-09-17T17:37:23.962Z,3.67
2018-09-17T17:39:50.504Z,2.83
2018-09-17T17:42:16.746Z,3.10
2018-09-17T17:44:43.128Z,2.83
2018-09-17T17:47:09.480Z,3.20
2018-09-17T17:49:35.878Z,3.00
2018-09-17T17:52:02.287Z,3.33
2018-09-17T17:54:28.708Z,3.07
2018-09-17T17:56:55.096Z,4.67
2018-09-17T17:59:21.467Z,4.17
2018-09-17T18:01:47.868Z,3.20
2018-09-17T18:04:14.263Z,3.37
2018-09-17T18:06:40.692Z,3.10
2018-09-17T18:09:07.011Z,5.20
2018-09-17T18:11:33.334Z,3.30
2018-09-17T18:13:59.674Z,9.17
2018-09-17T18:16:26.049Z,3.43
2018-09-17T18:18:52.388Z,3.43
2018-09-17T18:21:18.860Z,3.33
2018-09-17T18:23:45.215Z,3.30
2018-09-17T18:26:11.576Z,4.20
2018-09-17T18:28:37.948Z,3.40
2018-09-17T18:31:04.288Z,4.17
2018-09-17T18:33:30.669Z,3.50
2018-09-17T18:35:57.045Z,3.60
2018-09-17T18:38:23.378Z,3.80
2018-09-17T18:40:49.757Z,5.10
2018-09-17T18:43:16.087Z,3.83
2018-09-17T18:45:42.483Z,4.30
2018-09-17T18:48:08.909Z,4.60
2018-09-17T18:50:35.259Z,4.30
2018-09-17T18:53:01.617Z,4.57
2018-09-17T18:55:27.991Z,4.03
2018-09-17T18:57:54.383Z,4.13
2018-09-17T19:00:20.802Z,4.43
2018-09-17T19:02:47.109Z,5.60
2018-09-17T19:05:13.524Z,7.30
2018-09-17T19:07:39.875Z,4.40
2018-09-17T19:10:06.261Z,4.33
2018-09-17T19:12:32.618Z,4.50
2018-09-17T19:14:59.069Z,4.57
2018-09-17T19:17:25.350Z,4.27
2018-09-17T19:19:51.818Z,4.30
2018-09-17T19:22:18.337Z,5.23
2018-09-17T19:24:44.583Z,4.80
2018-09-17T19:27:11.033Z,5.03
2018-09-17T19:29:37.368Z,4.80
2018-09-17T19:32:03.750Z,4.63
2018-09-17T19:34:30.139Z,4.70
2018-09-17T19:36:56.507Z,4.50
2018-09-17T19:39:22.858Z,4.47
2018-09-17T19:41:49.304Z,5.87
2018-09-17T19:44:15.729Z,4.60
2018-09-17T19:46:42.080Z,4.47
2018-09-17T19:49:08.424Z,5.10
2018-09-17T19:51:34.744Z,4.83
2018-09-17T19:54:01.232Z,5.50
2018-09-17T19:56:27.670Z,5.33
2018-09-17T19:58:53.968Z,5.27
2018-09-17T20:01:20.326Z,5.63
2018-09-17T20:03:47.651Z,5.33
2018-09-17T20:06:14.077Z,5.30
2018-09-17T20:08:40.462Z,5.17
2018-09-17T20:11:06.792Z,5.67
2018-09-17T20:13:33.152Z,5.40
2018-09-17T20:15:59.524Z,5.20
2018-09-17T20:18:25.875Z,4.90
2018-09-17T20:20:52.242Z,6.13
2018-09-17T20:23:18.588Z,5.33
2018-09-17T20:25:44.915Z,6.23
2018-09-17T20:28:11.316Z,5.10
2018-09-17T20:30:37.664Z,5.57
2018-09-17T20:33:04.004Z,5.40
2018-09-17T20:35:30.328Z,5.47
2018-09-17T20:37:56.721Z,5.77
2018-09-17T20:40:23.064Z,5.50
2018-09-17T20:42:49.406Z,5.73
2018-09-17T20:45:15.852Z,5.83
2018-09-17T20:47:42.217Z,6.30
2018-09-17T20:50:08.667Z,5.63
2018-09-17T20:52:34.998Z,5.27
2018-09-17T20:55:01.444Z,5.43
2018-09-17T20:57:27.689Z,5.60
2018-09-17T20:59:54.075Z,5.97
2018-09-17T21:02:20.394Z,5.63
2018-09-17T21:04:46.804Z,5.70
2018-09-17T21:07:13.206Z,5.90
2018-09-17T21:09:39.544Z,5.63
2018-09-17T21:12:05.881Z,5.63
2018-09-17T21:14:32.272Z,6.13
2018-09-17T21:16:58.640Z,6.00
2018-09-17T21:19:25.059Z,6.43
2018-09-17T21:21:51.436Z,6.00
2018-09-17T21:24:17.776Z,5.83
2018-09-17T21:26:44.097Z,6.30
2018-09-17T21:29:10.415Z,6.23
2018-09-17T21:31:36.795Z,6.03
2018-09-17T21:34:03.184Z,6.00
2018-09-17T21:36:29.531Z,5.83
2018-09-17T21:38:55.977Z,5.80
2018-09-17T21:41:22.316Z,5.43
2018-09-17T21:43:48.660Z,6.10
2018-09-17T21:46:14.987Z,5.10
2018-09-17T21:48:41.400Z,5.83
2018-09-17T21:51:07.740Z,5.53
2018-09-17T21:53:34.079Z,5.33
2018-09-17T21:56:00.432Z,5.23
2018-09-17T21:58:26.873Z,6.70
2018-09-17T22:00:53.216Z,6.50
2018-09-17T22:03:19.531Z,5.60
2018-09-17T22:05:45.861Z,7.50
2018-09-17T22:08:12.204Z,5.23
2018-09-17T22:10:38.536Z,6.27
2018-09-17T22:13:04.883Z,5.70
2018-09-17T22:15:31.197Z,6.07
2018-09-17T22:17:57.564Z,6.27
2018-09-17T22:20:23.940Z,6.30
2018-09-17T22:22:50.326Z,6.13
2018-09-17T22:25:16.716Z,6.40
2018-09-17T22:27:43.045Z,6.00
2018-09-17T22:30:09.388Z,6.40
2018-09-17T22:32:35.724Z,6.13
2018-09-17T22:35:02.078Z,6.03
2018-09-17T22:37:28.412Z,6.50
2018-09-17T22:39:55.464Z,6.50
2018-09-17T22:42:21.890Z,5.80
2018-09-17T22:44:48.195Z,6.00
2018-09-17T22:47:14.522Z,5.40
2018-09-17T22:49:40.880Z,5.93
2018-09-17T22:52:07.211Z,6.10
2018-09-17T22:54:33.576Z,5.70
2018-09-17T22:56:59.900Z,6.00
2018-09-17T22:59:26.227Z,5.63
2018-09-17T23:01:52.599Z,5.27
2018-09-17T23:04:18.938Z,5.70
2018-09-17T23:06:45.298Z,5.77
2018-09-17T23:09:11.632Z,5.73
2018-09-17T23:11:37.998Z,5.57
2018-09-17T23:14:04.328Z,5.60
2018-09-17T23:16:30.691Z,5.30
2018-09-17T23:18:57.057Z,5.90
2018-09-17T23:21:23.382Z,5.77
2018-09-17T23:23:49.708Z,6.17
2018-09-17T23:26:16.037Z,5.50
2018-09-17T23:28:42.371Z,5.70
2018-09-17T23:31:08.706Z,5.60
2018-09-17T23:33:35.038Z,6.33
2018-09-17T23:36:01.364Z,5.50
2018-09-17T23:38:27.695Z,5.40
2018-09-17T23:40:54.084Z,5.43
2018-09-17T23:43:20.409Z,5.87
2018-09-17T23:45:46.792Z,5.87
2018-09-17T23:48:13.118Z,5.87
2018-09-17T23:50:39.489Z,5.47
2018-09-17T23:53:05.956Z,5.43
2018-09-17T23:55:32.286Z,5.53
2018-09-17T23:57:58.611Z,5.60
